createdAt,value
2023-04-01T00:03:29.284Z,1.10
2023-04-01T00:08:31.473Z,1.17
2023-04-01T00:13:33.481Z,0.98
2023-04-01T00:18:35.339Z,1.27
2023-04-01T00:23:37.087Z,1.52
2023-04-01T00:28:38.680Z,1.65
2023-04-01T00:33:42.141Z,0.88
2023-04-01T00:38:45.057Z,1.85
2023-04-01T00:43:49.620Z,1.02
2023-04-01T00:48:54.758Z,1.40
2023-04-01T00:53:58.736Z,1.27
2023-04-01T00:59:04.380Z,1.48
2023-04-01T01:04:06.737Z,1.17
2023-04-01T01:09:21.892Z,1.00
2023-04-01T01:14:39.689Z,0.95
2023-04-01T01:19:49.294Z,1.50
2023-04-01T01:25:13.744Z,1.02
2023-04-01T01:30:18.210Z,1.10
2023-04-01T01:35:40.052Z,1.00
2023-04-01T01:40:55.554Z,1.38
2023-04-01T01:46:01.125Z,1.20
2023-04-01T01:51:06.339Z,1.15
2023-04-01T01:56:09.058Z,1.02
2023-04-01T02:01:36.941Z,1.10
2023-04-01T02:07:03.458Z,1.00
2023-04-01T02:12:08.886Z,1.17
2023-04-01T02:17:18.249Z,1.15
2023-04-01T02:22:27.226Z,1.42
2023-04-01T02:27:29.313Z,1.30
2023-04-01T02:32:34.587Z,1.40
2023-04-01T02:37:37.343Z,1.25
2023-04-01T02:42:41.189Z,1.35
2023-04-01T02:47:42.852Z,1.55
2023-04-01T02:52:44.638Z,1.70
2023-04-01T02:57:46.577Z,1.42
2023-04-01T03:02:48.304Z,1.13
2023-04-01T03:07:50.252Z,1.25
2023-04-01T03:12:51.977Z,1.10
2023-04-01T03:17:53.653Z,1.42
2023-04-01T03:22:55.481Z,1.52
2023-04-01T03:27:57.534Z,1.40
2023-04-01T03:33:00.572Z,1.55
2023-04-01T03:38:02.283Z,1.20
2023-04-01T03:43:04.813Z,1.30
2023-04-01T03:48:06.978Z,1.83
2023-04-01T03:53:08.864Z,1.20
2023-04-01T03:58:12.078Z,0.98
2023-04-01T04:03:14.605Z,1.33
2023-04-01T04:08:17.455Z,1.63
2023-04-01T04:13:19.953Z,1.00
2023-04-01T04:18:26.642Z,1.10
2023-04-01T04:23:30.754Z,1.38
2023-04-01T04:28:33.080Z,1.20
2023-04-01T04:33:35.860Z,1.20
2023-04-01T04:38:38.254Z,1.17
2023-04-01T04:43:41.254Z,1.40
2023-04-01T04:48:44.827Z,1.50
2023-04-01T04:53:49.534Z,1.20
2023-04-01T04:58:53.698Z,0.95
2023-04-01T05:04:00.507Z,1.27
2023-04-01T05:09:02.229Z,1.27
2023-04-01T05:14:04.001Z,1.52
2023-04-01T05:19:07.404Z,1.20
2023-04-01T05:24:10.815Z,1.40
2023-04-01T05:29:13.351Z,1.05
2023-04-01T05:34:16.312Z,1.27
2023-04-01T05:39:17.937Z,1.50
2023-04-01T05:44:19.699Z,1.70
2023-04-01T05:49:24.805Z,1.38
2023-04-01T05:54:27.664Z,1.30
2023-04-01T05:59:29.402Z,1.98
2023-04-01T06:04:39.716Z,1.73
2023-04-01T06:09:42.842Z,1.20
2023-04-01T06:15:10.480Z,1.30
2023-04-01T06:20:24.386Z,1.23
2023-04-01T06:25:26.098Z,1.67
2023-04-01T06:30:42.160Z,0.93
2023-04-01T06:36:07.513Z,1.17
2023-04-01T06:41:28.814Z,1.60
2023-04-01T06:46:49.103Z,0.90
2023-04-01T06:52:27.409Z,1.45
2023-04-01T06:57:50.888Z,0.95
2023-04-01T07:03:07.048Z,1.10
2023-04-01T07:08:19.005Z,1.92
2023-04-01T07:13:41.986Z,1.10
2023-04-01T07:19:15.936Z,1.30
2023-04-01T07:24:35.016Z,1.33
2023-04-01T07:29:40.705Z,1.85
2023-04-01T07:35:21.310Z,1.15
2023-04-01T07:40:43.421Z,1.60
2023-04-01T07:46:04.940Z,1.38
2023-04-01T07:51:25.713Z,1.27
2023-04-01T07:56:46.033Z,1.70
2023-04-01T08:02:22.313Z,1.27
2023-04-01T08:07:47.610Z,1.10
2023-04-01T08:13:07.493Z,1.27
2023-04-01T08:18:56.070Z,1.05
2023-04-01T08:24:01.421Z,1.50
2023-04-01T08:29:22.016Z,0.70
2023-04-01T08:34:32.995Z,1.00
2023-04-01T08:39:40.539Z,0.70
2023-04-01T08:45:09.664Z,1.33
2023-04-01T08:50:23.218Z,1.05
2023-04-01T08:55:54.259Z,1.13
2023-04-01T09:01:34.783Z,1.00
2023-04-01T09:07:01.508Z,1.08
2023-04-01T09:12:28.434Z,1.10
2023-04-01T09:17:50.438Z,0.80
2023-04-01T09:23:23.817Z,1.10
2023-04-01T09:28:43.969Z,1.02
2023-04-01T09:34:14.906Z,1.17
2023-04-01T09:39:43.402Z,0.90
2023-04-01T09:45:00.257Z,0.70
2023-04-01T09:50:22.399Z,1.27
2023-04-01T09:55:36.301Z,1.00
2023-04-01T10:00:41.325Z,1.17
2023-04-01T10:05:55.225Z,0.80
2023-04-01T10:11:22.139Z,0.80
2023-04-01T10:16:31.256Z,1.23
2023-04-01T10:22:07.132Z,1.02
2023-04-01T10:27:38.560Z,0.85
2023-04-01T10:32:54.683Z,0.85
2023-04-01T10:38:30.825Z,0.98
2023-04-01T10:43:38.918Z,1.15
2023-04-01T10:49:02.186Z,0.60
2023-04-01T10:54:44.069Z,1.40
2023-04-01T11:00:40.462Z,1.08
2023-04-01T11:06:32.878Z,0.90
2023-04-01T11:11:40.903Z,1.33
2023-04-01T11:16:49.359Z,3.35
2023-04-01T11:22:00.146Z,0.88
2023-04-01T11:28:10.069Z,1.35
2023-04-01T11:33:52.882Z,1.48
2023-04-01T11:39:21.801Z,0.70
2023-04-01T11:44:48.665Z,1.10
2023-04-01T11:50:12.262Z,0.95
2023-04-01T11:55:44.759Z,0.88
2023-04-01T12:01:07.886Z,1.25
2023-04-01T12:06:27.103Z,1.15
2023-04-01T12:11:56.543Z,0.93
2023-04-01T12:17:08.228Z,2.10
2023-04-01T12:22:50.603Z,1.30
2023-04-01T12:28:24.224Z,1.20
2023-04-01T12:33:50.720Z,0.68
2023-04-01T12:39:22.294Z,6.30
2023-04-01T12:44:52.642Z,1.10
2023-04-01T12:50:17.505Z,4.32
2023-04-01T12:55:41.239Z,0.68
2023-04-01T13:01:20.436Z,0.85
2023-04-01T13:06:47.859Z,1.00
2023-04-01T13:12:17.636Z,0.60
2023-04-01T13:17:39.136Z,1.70
2023-04-01T13:23:05.707Z,0.60
2023-04-01T13:28:18.367Z,1.35
2023-04-01T13:33:34.741Z,0.70
2023-04-01T13:38:59.899Z,0.40
2023-04-01T13:44:18.738Z,0.60
2023-04-01T13:49:38.490Z,1.05
2023-04-01T13:54:52.013Z,0.50
2023-04-01T14:00:21.001Z,1.50
2023-04-01T14:05:45.032Z,0.60
2023-04-01T14:11:24.018Z,0.77
2023-04-01T14:16:35.399Z,0.50
2023-04-01T14:21:47.941Z,0.60
2023-04-01T14:27:13.842Z,0.73
2023-04-01T14:32:40.389Z,0.60
2023-04-01T14:38:08.120Z,0.90
2023-04-01T14:43:21.681Z,0.88
2023-04-01T14:48:35.681Z,0.60
2023-04-01T14:53:46.756Z,0.80
2023-04-01T14:58:58.327Z,0.77
2023-04-01T15:04:20.475Z,0.60
2023-04-01T15:09:39.842Z,1.00
2023-04-01T15:14:44.115Z,0.52
2023-04-01T15:20:00.681Z,0.82
2023-04-01T15:25:53.361Z,0.60
2023-04-01T15:31:17.742Z,0.75
2023-04-01T15:36:59.352Z,0.70
2023-04-01T15:42:40.378Z,0.43
2023-04-01T15:47:59.727Z,0.52
2023-04-01T15:53:22.566Z,0.60
2023-04-01T15:58:26.825Z,0.65
2023-04-01T16:03:49.913Z,0.73
2023-04-01T16:09:03.860Z,0.63
2023-04-01T16:14:14.846Z,0.70
2023-04-01T16:19:34.699Z,0.70
2023-04-01T16:24:40.028Z,1.05
2023-04-01T16:29:50.363Z,1.25
2023-04-01T16:35:41.957Z,0.80
2023-04-01T16:40:47.762Z,1.13
2023-04-01T16:46:26.829Z,1.70
2023-04-01T16:51:48.295Z,1.55
2023-04-01T17:02:24.961Z,0.98
2023-04-01T17:07:49.105Z,0.80
2023-04-01T17:13:28.436Z,1.00
2023-04-01T17:18:38.731Z,1.40
2023-04-01T17:24:31.525Z,1.00
2023-04-01T17:30:11.981Z,1.10
2023-04-01T17:35:20.448Z,1.10
2023-04-01T17:40:58.644Z,1.10
2023-04-01T17:46:28.321Z,1.10
2023-04-01T17:51:55.732Z,1.20
2023-04-01T17:57:22.796Z,1.27
2023-04-01T18:02:30.610Z,1.10
2023-04-01T18:07:39.351Z,1.10
2023-04-01T18:13:18.146Z,1.20
2023-04-01T18:18:40.879Z,1.50
2023-04-01T18:24:06.946Z,1.50
2023-04-01T18:29:14.282Z,1.33
2023-04-01T18:34:39.632Z,1.52
2023-04-01T18:39:47.491Z,1.83
2023-04-01T18:45:11.035Z,1.38
2023-04-01T18:50:16.402Z,1.75
2023-04-01T18:55:30.416Z,3.15
2023-04-01T19:00:46.070Z,2.28
2023-04-01T19:05:51.496Z,2.03
2023-04-01T19:11:02.477Z,3.85
2023-04-01T19:16:35.271Z,3.90
2023-04-01T19:21:38.642Z,3.60
2023-04-01T19:26:43.664Z,3.40
2023-04-01T19:31:51.416Z,2.97
2023-04-01T19:37:04.270Z,2.88
2023-04-01T19:42:08.441Z,3.30
2023-04-01T19:47:31.711Z,2.60
2023-04-01T19:52:42.335Z,3.03
2023-04-01T19:57:48.837Z,4.22
2023-04-01T20:03:12.515Z,4.90
2023-04-01T20:08:23.301Z,5.60
2023-04-01T20:14:10.628Z,7.28
2023-04-01T20:19:12.620Z,5.82
2023-04-01T20:24:14.312Z,6.30
2023-04-01T20:29:28.281Z,6.90
2023-04-01T20:35:01.181Z,6.40
2023-04-01T20:40:21.398Z,6.22
2023-04-01T20:45:38.677Z,6.05
2023-04-01T20:51:00.433Z,5.85
2023-04-01T20:56:13.862Z,5.00
2023-04-01T21:01:39.174Z,3.75
2023-04-01T21:06:45.715Z,2.55
2023-04-01T21:12:27.992Z,2.13
2023-04-01T21:17:57.182Z,3.25
2023-04-01T21:23:17.160Z,2.78
2023-04-01T21:28:40.279Z,1.60
2023-04-01T21:34:05.482Z,1.17
2023-04-01T21:39:16.383Z,2.05
2023-04-01T21:44:55.280Z,2.70
2023-04-01T21:50:09.126Z,4.80
2023-04-01T21:55:48.066Z,4.28
2023-04-01T22:01:00.517Z,4.38
2023-04-01T22:06:24.052Z,5.13
2023-04-01T22:11:40.433Z,2.63
2023-04-01T22:16:55.106Z,2.33
2023-04-01T22:22:17.962Z,3.20
2023-04-01T22:27:19.534Z,3.83
2023-04-01T22:32:42.925Z,3.40
2023-04-01T22:38:10.705Z,3.78
2023-04-01T22:43:17.186Z,3.00
2023-04-01T22:48:39.772Z,3.22
2023-04-01T22:54:09.277Z,3.78
2023-04-01T22:59:32.433Z,3.80
2023-04-01T23:04:39.937Z,3.92
2023-04-01T23:09:41.855Z,4.50
2023-04-01T23:14:56.183Z,5.13
2023-04-01T23:20:09.135Z,4.53
2023-04-01T23:25:29.926Z,4.03
2023-04-01T23:30:40.504Z,4.40
2023-04-01T23:36:13.570Z,4.63
2023-04-01T23:41:30.087Z,3.90
2023-04-01T23:46:35.396Z,4.22
2023-04-01T23:51:40.904Z,4.22
2023-04-01T23:56:46.741Z,4.88
